createdAt,value
2019-06-15T00:00:30.365Z,1.10
2019-06-15T00:03:00.605Z,1.03
2019-06-15T00:05:31.109Z,1.20
2019-06-15T00:08:04.614Z,1.40
2019-06-15T00:10:33.869Z,1.60
2019-06-15T00:13:04.477Z,1.50
2019-06-15T00:15:34.852Z,1.60
2019-06-15T00:18:05.454Z,1.60
2019-06-15T00:20:35.671Z,1.50
2019-06-15T00:23:06.040Z,1.70
2019-06-15T00:25:37.390Z,1.40
2019-06-15T00:28:07.666Z,1.60
2019-06-15T00:30:37.984Z,1.80
2019-06-15T00:33:09.471Z,1.37
2019-06-15T00:35:40.031Z,1.50
2019-06-15T00:38:10.532Z,1.57
2019-06-15T00:40:41.456Z,1.50
2019-06-15T00:43:12.772Z,1.40
2019-06-15T00:45:43.337Z,1.50
2019-06-15T00:48:13.744Z,1.23
2019-06-15T00:50:44.062Z,1.40
2019-06-15T00:53:14.491Z,1.43
2019-06-15T00:55:44.823Z,1.30
2019-06-15T00:58:15.619Z,1.40
2019-06-15T01:00:46.357Z,1.57
2019-06-15T01:03:16.756Z,1.40
2019-06-15T01:05:47.036Z,1.40
2019-06-15T01:08:17.817Z,1.37
2019-06-15T01:10:48.146Z,1.53
2019-06-15T01:13:18.524Z,1.30
2019-06-15T01:15:50.411Z,1.30
2019-06-15T01:18:21.229Z,1.43
2019-06-15T01:20:51.882Z,1.53
2019-06-15T01:23:22.801Z,1.50
2019-06-15T01:25:53.506Z,1.30
2019-06-15T01:28:23.871Z,1.70
2019-06-15T01:30:54.448Z,1.50
2019-06-15T01:33:25.200Z,1.60
2019-06-15T01:35:55.455Z,1.60
2019-06-15T01:38:26.105Z,1.63
2019-06-15T01:40:57.171Z,1.97
2019-06-15T01:43:27.697Z,1.70
2019-06-15T01:45:58.088Z,2.00
2019-06-15T01:48:28.489Z,1.80
2019-06-15T01:50:58.915Z,2.00
2019-06-15T01:53:29.619Z,2.17
2019-06-15T01:55:59.995Z,2.27
2019-06-15T01:58:35.277Z,2.63
2019-06-15T02:01:06.229Z,2.53
2019-06-15T02:03:37.019Z,2.93
2019-06-15T02:06:11.363Z,2.80
2019-06-15T02:08:42.119Z,3.10
2019-06-15T02:11:17.169Z,3.40
2019-06-15T02:13:52.195Z,3.53
2019-06-15T02:16:25.233Z,4.23
2019-06-15T02:18:56.787Z,5.07
2019-06-15T02:21:28.667Z,4.30
2019-06-15T02:24:01.871Z,5.13
2019-06-15T02:26:48.806Z,4.60
2019-06-15T02:29:25.126Z,4.93
2019-06-15T02:31:58.387Z,4.63
2019-06-15T02:34:41.280Z,5.07
2019-06-15T02:37:13.394Z,4.70
2019-06-15T02:39:45.286Z,4.40
2019-06-15T02:42:15.582Z,4.57
2019-06-15T02:44:46.157Z,4.67
2019-06-15T02:47:21.368Z,4.87
2019-06-15T02:49:52.014Z,4.70
2019-06-15T02:52:24.501Z,5.00
2019-06-15T02:54:57.612Z,4.90
2019-06-15T02:57:31.590Z,4.53
2019-06-15T03:00:01.909Z,5.13
2019-06-15T03:02:32.270Z,4.30
2019-06-15T03:05:07.313Z,4.20
2019-06-15T03:07:37.746Z,4.30
2019-06-15T03:10:19.462Z,4.77
2019-06-15T03:12:49.688Z,4.17
2019-06-15T03:15:22.277Z,4.00
2019-06-15T03:17:54.274Z,4.13
2019-06-15T03:20:24.716Z,4.00
2019-06-15T03:22:56.602Z,4.07
2019-06-15T03:25:29.683Z,4.30
2019-06-15T03:28:00.071Z,3.77
2019-06-15T03:30:30.471Z,3.63
2019-06-15T03:33:00.719Z,3.40
2019-06-15T03:35:31.251Z,3.07
2019-06-15T03:38:01.555Z,3.73
2019-06-15T03:40:31.919Z,3.60
2019-06-15T03:43:02.690Z,3.10
2019-06-15T03:45:33.389Z,3.17
2019-06-15T03:48:03.686Z,3.53
2019-06-15T03:50:34.154Z,2.97
2019-06-15T03:53:04.717Z,3.13
2019-06-15T03:55:35.185Z,2.60
2019-06-15T03:58:05.865Z,2.80
2019-06-15T04:01:29.102Z,3.60
2019-06-15T04:03:59.569Z,3.17
2019-06-15T04:06:30.779Z,3.10
2019-06-15T04:09:02.325Z,3.77
2019-06-15T04:11:33.342Z,3.53
2019-06-15T04:14:04.139Z,3.03
2019-06-15T04:16:36.236Z,3.27
2019-06-15T04:19:07.221Z,3.37
2019-06-15T04:21:38.184Z,3.40
2019-06-15T04:24:08.501Z,3.20
2019-06-15T04:26:39.347Z,3.70
2019-06-15T04:29:10.203Z,3.60
2019-06-15T04:31:40.676Z,4.23
2019-06-15T04:34:11.511Z,5.10
2019-06-15T04:36:42.502Z,4.60
2019-06-15T04:39:14.396Z,3.70
2019-06-15T04:41:45.087Z,3.70
2019-06-15T04:44:15.937Z,3.77
2019-06-15T04:46:46.411Z,4.00
2019-06-15T04:49:16.876Z,4.23
2019-06-15T04:51:47.275Z,4.37
2019-06-15T04:54:18.168Z,5.60
2019-06-15T04:56:51.184Z,5.13
2019-06-15T04:59:22.563Z,4.87
2019-06-15T05:01:53.610Z,4.40
2019-06-15T05:04:23.986Z,4.00
2019-06-15T05:06:54.567Z,4.60
2019-06-15T05:09:24.979Z,3.97
2019-06-15T05:11:58.156Z,5.00
2019-06-15T05:14:28.616Z,5.10
2019-06-15T05:16:59.618Z,4.70
2019-06-15T05:19:29.991Z,5.03
2019-06-15T05:22:00.292Z,4.37
2019-06-15T05:24:30.720Z,5.40
2019-06-15T05:27:06.400Z,5.67
2019-06-15T05:29:33.605Z,5.03
2019-06-15T05:32:04.030Z,5.13
2019-06-15T05:34:34.361Z,5.50
2019-06-15T05:37:05.485Z,5.97
2019-06-15T05:39:35.884Z,5.37
2019-06-15T05:42:06.880Z,5.30
2019-06-15T05:44:37.221Z,4.90
2019-06-15T05:47:08.224Z,5.53
2019-06-15T05:49:39.225Z,6.27
2019-06-15T05:52:09.827Z,5.30
2019-06-15T05:54:40.135Z,6.50
2019-06-15T05:57:21.167Z,6.10
2019-06-15T05:59:42.943Z,6.37
2019-06-15T06:02:14.078Z,6.83
2019-06-15T06:04:44.836Z,7.30
2019-06-15T06:07:15.633Z,7.80
2019-06-15T06:09:45.935Z,6.00
2019-06-15T06:12:16.419Z,6.70
2019-06-15T06:14:49.759Z,5.20
2019-06-15T06:17:20.774Z,6.77
2019-06-15T06:19:51.223Z,6.00
2019-06-15T06:22:24.473Z,5.78
2019-06-15T06:24:54.807Z,6.47
2019-06-15T06:27:36.239Z,5.43
2019-06-15T06:29:57.283Z,5.37
2019-06-15T06:32:27.785Z,6.47
2019-06-15T06:34:58.156Z,5.50
2019-06-15T06:37:29.169Z,6.20
2019-06-15T06:39:59.819Z,6.17
2019-06-15T06:42:30.539Z,5.87
2019-06-15T06:45:01.449Z,5.97
2019-06-15T06:47:32.463Z,6.17
2019-06-15T06:50:03.353Z,6.33
2019-06-15T06:52:34.050Z,6.20
2019-06-15T06:55:04.889Z,5.77
2019-06-15T06:57:50.791Z,6.47
2019-06-15T07:00:09.499Z,6.27
2019-06-15T07:02:40.527Z,6.60
2019-06-15T07:05:11.364Z,6.20
2019-06-15T07:07:41.982Z,6.33
2019-06-15T07:10:12.922Z,5.80
2019-06-15T07:12:44.435Z,5.00
2019-06-15T07:15:14.908Z,7.50
2019-06-15T07:17:45.505Z,7.60
2019-06-15T07:20:16.887Z,8.53
2019-06-15T07:22:47.697Z,7.80
2019-06-15T07:25:18.510Z,7.37
2019-06-15T07:27:49.240Z,7.73
2019-06-15T07:30:20.059Z,7.83
2019-06-15T07:32:50.584Z,7.77
2019-06-15T07:35:21.127Z,7.97
2019-06-15T07:37:52.096Z,6.10
2019-06-15T07:40:22.969Z,7.43
2019-06-15T07:42:54.033Z,7.40
2019-06-15T07:45:29.607Z,7.83
2019-06-15T07:48:00.525Z,6.50
2019-06-15T07:50:33.336Z,6.60
2019-06-15T07:53:04.115Z,6.90
2019-06-15T07:55:35.416Z,7.67
2019-06-15T07:58:06.599Z,6.70
2019-06-15T08:00:37.589Z,6.97
2019-06-15T08:03:08.275Z,6.43
2019-06-15T08:05:38.596Z,6.50
2019-06-15T08:08:09.439Z,6.30
2019-06-15T08:10:40.165Z,6.17
2019-06-15T08:13:11.023Z,6.37
2019-06-15T08:15:41.675Z,6.50
2019-06-15T08:18:13.355Z,5.93
2019-06-15T08:20:43.665Z,7.70
2019-06-15T08:23:14.000Z,7.30
2019-06-15T08:25:44.812Z,7.30
2019-06-15T08:28:17.542Z,7.10
2019-06-15T08:30:54.245Z,7.20
2019-06-15T08:33:25.295Z,7.23
2019-06-15T08:35:55.687Z,6.80
2019-06-15T08:38:26.639Z,6.60
2019-06-15T08:40:57.727Z,6.77
2019-06-15T08:43:30.281Z,7.20
2019-06-15T08:46:00.766Z,7.10
2019-06-15T08:48:31.619Z,7.00
2019-06-15T08:51:02.466Z,7.60
2019-06-15T08:53:32.947Z,7.00
2019-06-15T08:56:04.120Z,8.20
2019-06-15T08:58:34.741Z,7.40
2019-06-15T09:01:05.240Z,7.17
2019-06-15T09:03:35.613Z,7.47
2019-06-15T09:06:05.865Z,7.20
2019-06-15T09:08:36.443Z,7.33
2019-06-15T09:11:06.935Z,7.60
2019-06-15T09:13:37.734Z,7.83
2019-06-15T09:16:08.150Z,5.87
2019-06-15T09:18:38.810Z,6.83
2019-06-15T09:21:09.402Z,7.30
2019-06-15T09:23:40.347Z,6.37
2019-06-15T09:26:12.159Z,6.87
2019-06-15T09:28:42.927Z,6.60
2019-06-15T09:31:15.720Z,6.17
2019-06-15T09:33:46.255Z,6.70
2019-06-15T09:36:19.631Z,6.10
2019-06-15T09:38:52.361Z,4.83
2019-06-15T09:41:23.334Z,4.27
2019-06-15T09:43:55.276Z,3.83
2019-06-15T09:46:27.611Z,3.73
2019-06-15T09:49:00.515Z,3.00
2019-06-15T09:51:31.461Z,3.00
2019-06-15T09:54:06.079Z,2.60
2019-06-15T09:56:39.849Z,2.57
2019-06-15T09:59:25.294Z,2.30
2019-06-15T10:01:52.125Z,1.77
2019-06-15T10:04:18.457Z,1.80
2019-06-15T10:06:50.039Z,1.80
2019-06-15T10:09:23.173Z,2.17
2019-06-15T10:11:54.147Z,2.00
2019-06-15T10:14:24.622Z,2.20
2019-06-15T10:16:55.040Z,2.30
2019-06-15T10:19:26.321Z,2.10
2019-06-15T10:21:57.037Z,2.10
2019-06-15T10:24:28.800Z,2.70
2019-06-15T10:26:59.469Z,4.03
2019-06-15T10:29:41.644Z,2.30
2019-06-15T10:32:05.464Z,2.13
2019-06-15T10:34:36.432Z,1.97
2019-06-15T10:37:06.795Z,2.00
2019-06-15T10:39:37.232Z,1.83
2019-06-15T10:42:08.267Z,1.80
2019-06-15T10:44:38.974Z,2.30
2019-06-15T10:47:11.013Z,2.20
2019-06-15T10:49:41.607Z,1.93
2019-06-15T10:52:14.426Z,2.10
2019-06-15T10:54:44.739Z,1.60
2019-06-15T10:57:16.412Z,1.60
2019-06-15T10:59:56.790Z,1.63
2019-06-15T11:02:18.916Z,1.60
2019-06-15T11:04:49.705Z,2.00
2019-06-15T11:07:20.042Z,2.43
2019-06-15T11:09:50.495Z,2.07
2019-06-15T11:12:21.188Z,1.73
2019-06-15T11:14:52.212Z,1.87
2019-06-15T11:17:22.756Z,1.60
2019-06-15T11:19:53.161Z,1.50
2019-06-15T11:22:23.463Z,1.50
2019-06-15T11:24:53.988Z,1.70
2019-06-15T11:27:24.214Z,2.00
2019-06-15T11:29:54.616Z,2.00
2019-06-15T11:32:25.157Z,2.50
2019-06-15T11:35:01.467Z,2.70
2019-06-15T11:37:36.346Z,2.83
2019-06-15T11:40:07.144Z,3.40
2019-06-15T11:42:38.015Z,2.87
2019-06-15T11:45:10.815Z,2.10
2019-06-15T11:47:41.533Z,2.73
2019-06-15T11:50:12.527Z,2.60
2019-06-15T11:52:43.014Z,2.87
2019-06-15T11:55:13.498Z,3.80
2019-06-15T11:57:44.145Z,3.20
2019-06-15T12:00:30.438Z,3.87
2019-06-15T12:02:47.816Z,3.30
2019-06-15T12:05:19.172Z,2.57
2019-06-15T12:07:49.653Z,2.90
2019-06-15T12:10:20.654Z,2.60
2019-06-15T12:12:50.933Z,2.73
2019-06-15T12:15:22.409Z,2.73
2019-06-15T12:17:52.893Z,2.83
2019-06-15T12:20:23.207Z,2.50
2019-06-15T12:22:53.512Z,3.20
2019-06-15T12:25:24.250Z,3.20
2019-06-15T12:27:55.249Z,2.70
2019-06-15T12:30:46.030Z,2.50
2019-06-15T12:33:09.835Z,2.50
2019-06-15T12:35:40.225Z,2.60
2019-06-15T12:38:10.745Z,2.50
2019-06-15T12:40:41.052Z,2.27
2019-06-15T12:43:11.836Z,2.50
2019-06-15T12:45:42.769Z,2.23
2019-06-15T12:48:14.237Z,2.30
2019-06-15T12:50:44.545Z,2.50
2019-06-15T12:53:15.304Z,2.80
2019-06-15T12:55:45.651Z,2.00
2019-06-15T12:58:16.785Z,1.93
2019-06-15T13:01:01.616Z,2.20
2019-06-15T13:03:19.754Z,2.30
2019-06-15T13:05:50.111Z,2.00
2019-06-15T13:08:20.575Z,2.20
2019-06-15T13:10:51.043Z,2.33
2019-06-15T13:13:21.330Z,2.47
2019-06-15T13:15:51.656Z,2.27
2019-06-15T13:18:22.040Z,2.20
2019-06-15T13:20:53.148Z,2.17
2019-06-15T13:23:23.476Z,2.37
2019-06-15T13:25:54.277Z,2.20
2019-06-15T13:28:25.029Z,2.47
2019-06-15T13:30:56.726Z,2.57
2019-06-15T13:33:27.525Z,2.10
2019-06-15T13:35:59.118Z,2.33
2019-06-15T13:38:29.422Z,2.20
2019-06-15T13:40:59.723Z,2.40
2019-06-15T13:43:30.728Z,2.07
2019-06-15T13:46:01.347Z,2.27
2019-06-15T13:48:31.734Z,2.27
2019-06-15T13:51:02.147Z,1.87
2019-06-15T13:53:32.608Z,1.90
2019-06-15T13:56:04.660Z,1.77
2019-06-15T13:58:35.453Z,1.40
2019-06-15T14:01:06.333Z,1.40
2019-06-15T14:03:36.908Z,1.30
2019-06-15T14:06:08.352Z,1.60
2019-06-15T14:08:39.954Z,1.50
2019-06-15T14:11:10.338Z,1.77
2019-06-15T14:13:40.703Z,1.87
2019-06-15T14:16:11.182Z,1.50
2019-06-15T14:18:41.596Z,1.80
2019-06-15T14:21:12.034Z,1.70
2019-06-15T14:23:42.512Z,1.80
2019-06-15T14:26:13.917Z,1.50
2019-06-15T14:28:44.264Z,1.73
2019-06-15T14:31:14.645Z,1.90
2019-06-15T14:33:45.683Z,1.80
2019-06-15T14:36:16.433Z,1.77
2019-06-15T14:38:46.850Z,1.70
2019-06-15T14:41:17.231Z,1.70
2019-06-15T14:43:47.575Z,1.70
2019-06-15T14:46:18.197Z,2.30
2019-06-15T14:48:48.624Z,2.00
2019-06-15T14:51:19.897Z,1.93
2019-06-15T14:53:55.567Z,2.17
2019-06-15T14:56:22.485Z,1.80
2019-06-15T14:58:53.082Z,1.90
2019-06-15T15:01:25.966Z,2.20
2019-06-15T15:03:57.270Z,2.10
2019-06-15T15:06:27.762Z,2.20
2019-06-15T15:08:58.438Z,1.90
2019-06-15T15:11:28.739Z,2.03
2019-06-15T15:13:59.555Z,1.93
2019-06-15T15:16:29.998Z,2.00
2019-06-15T15:19:00.415Z,1.60
2019-06-15T15:21:30.782Z,2.07
2019-06-15T15:24:01.691Z,2.03
2019-06-15T15:26:34.197Z,1.70
2019-06-15T15:29:06.992Z,2.07
2019-06-15T15:31:37.992Z,1.73
2019-06-15T15:34:09.396Z,1.87
2019-06-15T15:36:39.729Z,1.73
2019-06-15T15:39:11.997Z,1.77
2019-06-15T15:41:42.432Z,1.80
2019-06-15T15:44:13.218Z,1.70
2019-06-15T15:46:46.037Z,1.70
2019-06-15T15:49:16.278Z,1.67
2019-06-15T15:51:47.603Z,1.70
2019-06-15T15:54:18.950Z,2.00
2019-06-15T15:56:49.389Z,1.70
2019-06-15T15:59:19.877Z,1.90
2019-06-15T16:01:50.691Z,1.80
2019-06-15T16:04:21.316Z,2.13
2019-06-15T16:06:51.892Z,1.90
2019-06-15T16:09:27.322Z,1.80
2019-06-15T16:11:57.543Z,1.90
2019-06-15T16:14:28.042Z,2.20
2019-06-15T16:16:58.704Z,2.20
2019-06-15T16:19:29.227Z,2.00
2019-06-15T16:22:00.170Z,1.90
2019-06-15T16:24:30.706Z,2.10
2019-06-15T16:27:01.714Z,2.00
2019-06-15T16:29:32.061Z,2.30
2019-06-15T16:32:02.580Z,2.00
2019-06-15T16:34:33.193Z,2.00
2019-06-15T16:37:06.404Z,2.10
2019-06-15T16:39:36.618Z,2.17
2019-06-15T16:42:07.203Z,2.17
2019-06-15T16:44:37.692Z,1.97
2019-06-15T16:47:08.617Z,1.60
2019-06-15T16:49:39.383Z,1.77
2019-06-15T16:52:10.915Z,1.90
2019-06-15T16:54:41.329Z,1.80
2019-06-15T16:57:11.811Z,1.63
2019-06-15T16:59:42.179Z,2.10
2019-06-15T17:02:12.647Z,1.80
2019-06-15T17:04:42.887Z,1.70
2019-06-15T17:07:13.589Z,1.80
2019-06-15T17:09:46.367Z,1.70
2019-06-15T17:12:16.942Z,1.80
2019-06-15T17:14:47.627Z,2.60
2019-06-15T17:17:18.123Z,2.30
2019-06-15T17:19:48.887Z,1.90
2019-06-15T17:22:21.429Z,2.10
2019-06-15T17:24:51.923Z,2.27
2019-06-15T17:27:23.242Z,1.90
2019-06-15T17:29:56.726Z,1.90
2019-06-15T17:32:27.204Z,1.90
2019-06-15T17:34:57.930Z,1.87
2019-06-15T17:37:28.384Z,2.20
2019-06-15T17:39:59.085Z,1.80
2019-06-15T17:42:29.516Z,1.90
2019-06-15T17:44:59.842Z,1.70
2019-06-15T17:47:30.515Z,2.10
2019-06-15T17:50:00.882Z,1.77
2019-06-15T17:52:31.352Z,1.57
2019-06-15T17:55:01.887Z,2.10
2019-06-15T17:57:32.427Z,1.90
2019-06-15T18:00:03.267Z,1.90
2019-06-15T18:02:33.796Z,2.20
2019-06-15T18:05:06.831Z,2.03
2019-06-15T18:07:37.134Z,2.20
2019-06-15T18:10:08.911Z,2.10
2019-06-15T18:12:39.318Z,2.17
2019-06-15T18:15:09.799Z,1.90
2019-06-15T18:17:40.245Z,1.90
2019-06-15T18:20:11.109Z,1.87
2019-06-15T18:22:41.449Z,1.80
2019-06-15T18:25:11.935Z,2.00
2019-06-15T18:27:42.427Z,2.40
2019-06-15T18:30:13.484Z,2.30
2019-06-15T18:32:46.558Z,1.83
2019-06-15T18:35:16.952Z,1.90
2019-06-15T18:37:47.569Z,1.90
2019-06-15T18:40:18.707Z,1.90
2019-06-15T18:42:49.228Z,1.97
2019-06-15T18:45:20.438Z,1.53
2019-06-15T18:47:50.936Z,1.90
2019-06-15T18:50:38.924Z,1.70
2019-06-15T18:53:09.463Z,1.77
2019-06-15T18:55:39.781Z,1.50
2019-06-15T18:58:10.490Z,1.73
2019-06-15T19:00:40.836Z,1.70
2019-06-15T19:03:11.237Z,1.70
2019-06-15T19:05:41.551Z,1.87
2019-06-15T19:08:12.275Z,1.63
2019-06-15T19:10:42.962Z,1.90
2019-06-15T19:13:13.386Z,2.00
2019-06-15T19:15:46.263Z,1.80
2019-06-15T19:18:17.858Z,1.80
2019-06-15T19:20:48.404Z,1.80
2019-06-15T19:23:18.917Z,2.00
2019-06-15T19:25:51.492Z,2.40
2019-06-15T19:28:22.038Z,2.00
2019-06-15T19:30:52.453Z,2.33
2019-06-15T19:33:22.709Z,2.37
2019-06-15T19:35:56.702Z,2.00
2019-06-15T19:38:27.172Z,1.90
2019-06-15T19:40:57.841Z,1.77
2019-06-15T19:43:28.307Z,1.90
2019-06-15T19:45:59.017Z,1.90
2019-06-15T19:48:29.909Z,2.07
2019-06-15T19:51:00.787Z,1.83
2019-06-15T19:53:31.417Z,2.00
2019-06-15T19:56:01.878Z,2.00
2019-06-15T19:58:32.362Z,2.40
2019-06-15T20:01:02.695Z,2.20
2019-06-15T20:03:35.989Z,2.10
2019-06-15T20:06:06.826Z,2.13
2019-06-15T20:08:37.153Z,1.93
2019-06-15T20:11:07.823Z,2.13
2019-06-15T20:13:38.230Z,1.80
2019-06-15T20:16:09.033Z,1.93
2019-06-15T20:18:40.289Z,2.03
2019-06-15T20:21:10.965Z,1.83
2019-06-15T20:23:41.359Z,2.00
2019-06-15T20:26:12.307Z,2.00
2019-06-15T20:28:42.781Z,2.10
2019-06-15T20:31:13.456Z,2.20
2019-06-15T20:33:46.467Z,2.00
2019-06-15T20:36:16.686Z,2.00
2019-06-15T20:38:47.066Z,2.10
2019-06-15T20:41:18.122Z,2.07
2019-06-15T20:43:48.463Z,2.20
2019-06-15T20:46:18.850Z,2.20
2019-06-15T20:48:49.680Z,2.23
2019-06-15T20:51:19.955Z,2.00
2019-06-15T20:53:50.627Z,2.10
2019-06-15T20:56:20.971Z,2.10
2019-06-15T20:58:51.655Z,2.23
2019-06-15T21:01:26.012Z,2.20
2019-06-15T21:03:56.910Z,2.07
2019-06-15T21:06:27.220Z,1.80
2019-06-15T21:08:57.621Z,2.20
2019-06-15T21:11:28.219Z,2.30
2019-06-15T21:13:59.134Z,2.40
2019-06-15T21:16:29.832Z,2.10
2019-06-15T21:19:00.289Z,2.37
2019-06-15T21:21:31.270Z,2.53
2019-06-15T21:24:02.113Z,2.30
2019-06-15T21:26:32.454Z,2.73
2019-06-15T21:29:06.383Z,2.70
2019-06-15T21:31:36.752Z,2.83
2019-06-15T21:34:07.333Z,2.40
2019-06-15T21:36:37.887Z,2.40
2019-06-15T21:39:09.218Z,2.70
2019-06-15T21:41:39.609Z,2.27
2019-06-15T21:44:10.731Z,2.40
2019-06-15T21:46:41.090Z,2.57
2019-06-15T21:49:11.716Z,2.60
2019-06-15T21:51:42.006Z,2.70
2019-06-15T21:54:12.868Z,2.50
2019-06-15T21:56:44.325Z,2.60
2019-06-15T21:59:16.543Z,2.70
2019-06-15T22:01:46.547Z,2.23
2019-06-15T22:04:16.874Z,2.27
2019-06-15T22:06:47.714Z,2.20
2019-06-15T22:09:20.974Z,2.37
2019-06-15T22:11:50.735Z,2.40
2019-06-15T22:14:23.807Z,2.60
2019-06-15T22:16:56.731Z,2.80
2019-06-15T22:19:26.279Z,2.50
2019-06-15T22:21:56.623Z,2.40
2019-06-15T22:24:27.569Z,2.63
2019-06-15T22:26:58.046Z,2.80
2019-06-15T22:29:28.909Z,2.70
2019-06-15T22:31:59.233Z,2.90
2019-06-15T22:34:30.120Z,2.63
2019-06-15T22:37:01.341Z,2.50
2019-06-15T22:39:31.831Z,2.97
2019-06-15T22:42:02.944Z,2.80
2019-06-15T22:44:33.417Z,3.00
2019-06-15T22:47:03.810Z,2.97
2019-06-15T22:49:35.971Z,3.20
2019-06-15T22:52:06.697Z,2.83
2019-06-15T22:54:37.734Z,2.97
2019-06-15T22:57:08.440Z,2.80
2019-06-15T22:59:38.726Z,3.47
2019-06-15T23:02:08.939Z,2.70
2019-06-15T23:04:39.542Z,2.90
2019-06-15T23:07:09.871Z,3.10
2019-06-15T23:09:40.144Z,4.20
2019-06-15T23:12:10.471Z,3.97
2019-06-15T23:14:41.172Z,3.93
2019-06-15T23:17:11.402Z,4.60
2019-06-15T23:19:42.047Z,3.80
2019-06-15T23:22:12.627Z,4.57
2019-06-15T23:24:43.762Z,4.00
2019-06-15T23:27:16.423Z,4.07
2019-06-15T23:29:46.432Z,4.13
2019-06-15T23:32:16.997Z,3.97
2019-06-15T23:34:48.033Z,4.10
2019-06-15T23:37:20.923Z,3.90
2019-06-15T23:40:09.698Z,4.57
2019-06-15T23:42:39.953Z,4.00
2019-06-15T23:45:11.001Z,4.20
2019-06-15T23:47:41.187Z,4.50
2019-06-15T23:50:11.430Z,3.80
2019-06-15T23:52:43.840Z,3.53
2019-06-15T23:55:15.203Z,4.20
2019-06-15T23:57:46.468Z,3.80
